Main page
METAR-TAF:

METAR-TAF

Airports :

Vlissingen, Netherlands

latitude: 51-27N, longitude: 3-36E, elevation: 10 m

Current weather observation

The report was made 14 minutes ago, at 03:25 UTC
Wind 9 kt from the East/Northeast
Temperature 19°C
Humidity 73%
Pressure 1016 hPa
Visibility 10 km or more

METAR: EHFS 270325Z AUTO 07009KT 9999 NSC 19/14 Q1016 W///H///

Time: 05:39 (03:39 UTC)


TAF: missing

Weather observations and forecasts of more than 4000 airports (METAR and TAF reports).

The available stations are represented by yellow and red dots on the map.

Hover mouse over dot to see the name of the station.

Then click to see weather observations and forecasts.

To change the map : click on the green buttons with a black cross to zoom in, on the green button with a dash to zoom out, or on the green arrows for adjacent maps.


METAR-TAF: